createdAt,value
2022-08-30T00:01:53.324Z,41.63
2022-08-30T00:04:19.707Z,41.55
2022-08-30T00:06:46.081Z,42.00
2022-08-30T00:09:12.467Z,42.33
2022-08-30T00:11:38.841Z,42.54
2022-08-30T00:14:05.225Z,42.57
2022-08-30T00:16:31.629Z,42.51
2022-08-30T00:18:58.037Z,42.69
2022-08-30T00:21:24.434Z,42.50
2022-08-30T00:23:50.820Z,42.42
2022-08-30T00:26:17.212Z,42.61
2022-08-30T00:28:43.646Z,42.22
2022-08-30T00:31:10.083Z,42.06
2022-08-30T00:33:36.880Z,42.25
2022-08-30T00:36:03.264Z,42.31
2022-08-30T00:38:29.649Z,42.65
2022-08-30T00:40:56.018Z,42.99
2022-08-30T00:43:22.393Z,42.70
2022-08-30T00:45:50.571Z,43.30
2022-08-30T00:48:16.993Z,43.46
2022-08-30T00:50:43.373Z,43.49
2022-08-30T00:53:09.819Z,43.85
2022-08-30T00:55:38.861Z,44.18
2022-08-30T00:58:07.301Z,44.24
2022-08-30T01:00:33.678Z,44.61
2022-08-30T01:03:00.172Z,45.41
2022-08-30T01:05:26.599Z,45.27
2022-08-30T01:07:52.988Z,45.33
2022-08-30T01:10:19.406Z,45.54
2022-08-30T01:12:45.831Z,45.84
2022-08-30T01:15:12.233Z,46.57
2022-08-30T01:17:38.620Z,46.61
2022-08-30T01:20:05.727Z,46.76
2022-08-30T01:22:32.107Z,46.80
2022-08-30T01:24:58.511Z,46.58
2022-08-30T01:27:24.895Z,46.71
2022-08-30T01:29:51.289Z,46.79
2022-08-30T01:32:20.802Z,47.01
2022-08-30T01:34:47.605Z,47.11
2022-08-30T01:37:13.995Z,46.79
2022-08-30T01:39:40.376Z,46.58
2022-08-30T01:42:08.115Z,46.25
2022-08-30T01:44:34.528Z,46.35
2022-08-30T01:47:00.946Z,46.52
2022-08-30T01:49:28.006Z,46.50
2022-08-30T01:52:00.923Z,46.72
2022-08-30T01:54:27.866Z,46.52
2022-08-30T01:57:03.016Z,46.25
2022-08-30T01:59:29.387Z,46.37
2022-08-30T02:01:55.789Z,46.65
2022-08-30T02:04:22.173Z,46.79
2022-08-30T02:06:48.572Z,46.99
2022-08-30T02:09:14.945Z,46.72
2022-08-30T02:11:41.332Z,46.69
2022-08-30T02:14:08.809Z,47.18
2022-08-30T02:16:35.229Z,47.16
2022-08-30T02:19:01.640Z,47.71
2022-08-30T02:21:28.032Z,47.19
2022-08-30T02:23:54.448Z,47.20
2022-08-30T02:26:20.833Z,46.85
2022-08-30T02:28:49.951Z,47.07
2022-08-30T02:31:19.373Z,47.21
2022-08-30T02:33:47.128Z,46.94
2022-08-30T02:36:13.490Z,46.81
2022-08-30T02:38:39.875Z,46.49
2022-08-30T02:41:06.252Z,46.01
2022-08-30T02:43:32.627Z,46.02
2022-08-30T02:45:59.145Z,46.21
2022-08-30T02:48:25.606Z,46.43
2022-08-30T02:50:51.996Z,46.59
2022-08-30T02:53:18.537Z,46.96
2022-08-30T02:55:46.128Z,47.33
2022-08-30T02:58:12.549Z,47.13
2022-08-30T03:00:38.938Z,46.93
2022-08-30T03:03:05.434Z,47.12
2022-08-30T03:05:31.830Z,47.12
2022-08-30T03:07:58.266Z,47.12
2022-08-30T03:10:24.650Z,47.63
2022-08-30T03:12:51.028Z,47.47
2022-08-30T03:15:17.411Z,47.10
2022-08-30T03:17:43.797Z,47.66
2022-08-30T03:20:11.608Z,47.49
2022-08-30T03:22:37.974Z,47.51
2022-08-30T03:25:04.377Z,47.89
2022-08-30T03:27:30.748Z,47.70
2022-08-30T03:29:57.140Z,47.76
2022-08-30T03:32:23.518Z,47.59
2022-08-30T03:34:49.924Z,47.55
2022-08-30T03:37:16.305Z,47.51
2022-08-30T03:39:42.682Z,47.36
2022-08-30T03:42:09.077Z,47.51
2022-08-30T03:44:35.463Z,47.60
2022-08-30T03:47:02.742Z,47.61
2022-08-30T03:49:29.113Z,47.64
2022-08-30T03:51:55.510Z,47.60
2022-08-30T03:54:23.472Z,47.58
2022-08-30T03:56:51.092Z,47.74
2022-08-30T03:59:17.474Z,47.83
2022-08-30T04:01:43.968Z,47.96
2022-08-30T04:04:10.374Z,48.19
2022-08-30T04:06:36.776Z,48.07
2022-08-30T04:09:03.193Z,47.14
2022-08-30T04:11:29.566Z,46.46
2022-08-30T04:13:55.960Z,46.27
2022-08-30T04:16:22.388Z,47.05
2022-08-30T04:18:48.840Z,47.60
2022-08-30T04:21:15.214Z,47.55
2022-08-30T04:23:41.594Z,47.74
2022-08-30T04:26:07.985Z,47.82
2022-08-30T04:28:34.361Z,47.78
2022-08-30T04:31:00.745Z,47.87
2022-08-30T04:33:28.975Z,47.74
2022-08-30T04:35:55.449Z,47.24
2022-08-30T04:38:22.615Z,47.19
2022-08-30T04:40:49.829Z,46.86
2022-08-30T04:43:16.354Z,46.25
2022-08-30T04:45:42.914Z,46.30
2022-08-30T04:48:09.339Z,44.80
2022-08-30T04:50:35.731Z,43.75
2022-08-30T04:53:04.901Z,43.92
2022-08-30T04:55:31.282Z,45.42
2022-08-30T04:57:57.679Z,44.37
2022-08-30T05:00:26.475Z,44.52
2022-08-30T05:02:52.864Z,43.73
2022-08-30T05:05:19.227Z,43.50
2022-08-30T05:07:45.631Z,44.02
2022-08-30T05:10:12.033Z,43.49
2022-08-30T05:12:38.403Z,43.65
2022-08-30T05:15:04.803Z,43.56
2022-08-30T05:17:31.232Z,43.85
2022-08-30T05:19:57.624Z,42.89
2022-08-30T05:22:24.019Z,42.99
2022-08-30T05:24:50.409Z,42.71
2022-08-30T05:27:16.799Z,42.17
2022-08-30T05:29:43.179Z,42.28
2022-08-30T05:32:09.568Z,42.35
2022-08-30T05:34:35.957Z,42.15
2022-08-30T05:37:02.348Z,41.75
2022-08-30T05:39:28.730Z,41.88
2022-08-30T05:42:16.891Z,42.44
2022-08-30T05:44:44.354Z,42.32
2022-08-30T05:47:10.846Z,41.79
2022-08-30T05:49:37.252Z,41.68
2022-08-30T05:52:03.640Z,41.08
2022-08-30T05:54:30.077Z,41.70
2022-08-30T05:56:56.478Z,41.58
2022-08-30T05:59:22.868Z,41.94
2022-08-30T06:01:49.335Z,41.59
2022-08-30T06:04:15.736Z,41.60
2022-08-30T06:06:42.162Z,41.58
2022-08-30T06:09:08.551Z,41.52
2022-08-30T06:11:34.995Z,41.77
2022-08-30T06:14:01.363Z,41.14
2022-08-30T06:16:27.810Z,41.69
2022-08-30T06:18:54.330Z,41.11
2022-08-30T06:21:20.712Z,41.14
2022-08-30T06:23:49.149Z,41.02
2022-08-30T06:26:15.549Z,41.28
2022-08-30T06:28:41.919Z,41.03
2022-08-30T06:31:08.371Z,40.94
2022-08-30T06:33:34.783Z,40.85
2022-08-30T06:36:05.749Z,40.84
2022-08-30T06:38:32.460Z,40.47
2022-08-30T06:40:58.877Z,40.28
2022-08-30T06:43:25.307Z,39.42
2022-08-30T06:45:51.704Z,40.04
2022-08-30T06:48:18.324Z,40.18
2022-08-30T06:50:44.901Z,40.21
2022-08-30T06:53:11.600Z,40.85
2022-08-30T06:55:37.997Z,40.65
2022-08-30T06:58:04.394Z,40.22
2022-08-30T07:00:30.774Z,40.39
2022-08-30T07:02:57.245Z,40.87
2022-08-30T07:05:23.683Z,40.53
2022-08-30T07:07:50.094Z,40.27
2022-08-30T07:10:16.475Z,40.88
2022-08-30T07:12:42.889Z,39.86
2022-08-30T07:15:09.309Z,39.57
2022-08-30T07:17:35.689Z,38.82
2022-08-30T07:20:02.138Z,38.32
2022-08-30T07:22:28.530Z,38.41
2022-08-30T07:24:54.902Z,38.56
2022-08-30T07:27:21.283Z,40.25
2022-08-30T07:29:47.663Z,38.30
2022-08-30T07:32:14.066Z,38.40
2022-08-30T07:34:40.472Z,38.82
2022-08-30T07:37:06.884Z,39.63
2022-08-30T07:39:35.724Z,39.86
2022-08-30T07:42:04.358Z,40.74
2022-08-30T07:44:30.739Z,40.46
2022-08-30T07:46:57.113Z,40.48
2022-08-30T07:49:23.500Z,40.62
2022-08-30T07:51:52.190Z,40.49
2022-08-30T07:54:18.579Z,40.87
2022-08-30T07:56:44.953Z,43.67
2022-08-30T07:59:11.339Z,45.61
2022-08-30T08:01:37.790Z,43.80
2022-08-30T08:04:04.206Z,43.14
2022-08-30T08:06:34.693Z,44.13
2022-08-30T08:09:01.434Z,44.27
2022-08-30T08:11:32.873Z,44.76
2022-08-30T08:13:59.941Z,45.26
2022-08-30T08:16:26.335Z,44.93
2022-08-30T08:18:52.716Z,45.09
2022-08-30T08:21:19.122Z,46.26
2022-08-30T08:23:45.541Z,47.92
2022-08-30T08:26:11.918Z,48.86
2022-08-30T08:28:38.311Z,47.88
2022-08-30T08:31:04.716Z,47.33
2022-08-30T08:33:31.128Z,45.92
2022-08-30T08:35:57.572Z,44.66
2022-08-30T08:38:23.990Z,44.57
2022-08-30T08:40:50.381Z,45.76
2022-08-30T08:43:16.764Z,45.08
2022-08-30T08:45:43.150Z,43.47
2022-08-30T08:48:09.636Z,43.75
2022-08-30T08:50:37.953Z,44.30
2022-08-30T08:53:04.384Z,43.77
2022-08-30T08:55:30.767Z,42.54
2022-08-30T08:57:57.208Z,42.17
2022-08-30T09:00:23.616Z,41.95
2022-08-30T09:02:53.879Z,42.24
2022-08-30T09:05:22.073Z,42.90
2022-08-30T09:07:48.509Z,41.74
2022-08-30T09:10:14.912Z,42.35
2022-08-30T09:12:41.324Z,43.38
2022-08-30T09:15:07.704Z,43.38
2022-08-30T09:17:34.508Z,46.78
2022-08-30T09:20:00.904Z,45.46
2022-08-30T09:22:27.298Z,44.64
2022-08-30T09:24:53.760Z,45.81
2022-08-30T09:27:22.109Z,46.57
2022-08-30T09:29:50.587Z,46.09
2022-08-30T09:32:25.267Z,47.19
2022-08-30T09:34:52.131Z,48.44
2022-08-30T09:37:18.538Z,46.91
2022-08-30T09:39:44.917Z,46.23
2022-08-30T09:42:11.431Z,46.60
2022-08-30T09:44:39.155Z,47.33
2022-08-30T09:47:05.562Z,46.08
2022-08-30T09:49:31.956Z,46.63
2022-08-30T09:51:58.363Z,46.20
2022-08-30T09:54:24.796Z,45.71
2022-08-30T09:56:51.950Z,45.74
2022-08-30T09:59:18.341Z,45.68
2022-08-30T10:01:45.342Z,45.35
2022-08-30T10:04:11.779Z,45.77
2022-08-30T10:06:38.157Z,46.59
2022-08-30T10:09:08.545Z,50.92
2022-08-30T10:11:34.927Z,52.18
2022-08-30T10:14:01.383Z,55.85
2022-08-30T10:16:29.349Z,55.08
2022-08-30T10:18:57.835Z,54.85
2022-08-30T10:21:24.226Z,55.97
2022-08-30T10:23:50.877Z,54.36
2022-08-30T10:26:19.456Z,55.44
2022-08-30T10:28:46.799Z,55.62
2022-08-30T10:31:13.554Z,54.89
2022-08-30T10:33:39.932Z,56.52
2022-08-30T10:36:10.506Z,56.49
2022-08-30T10:38:37.090Z,56.61
2022-08-30T10:41:03.490Z,55.88
2022-08-30T10:43:31.000Z,56.60
2022-08-30T10:45:58.086Z,56.89
2022-08-30T10:48:24.476Z,56.19
2022-08-30T10:50:51.008Z,56.52
2022-08-30T10:53:17.545Z,56.50
2022-08-30T10:55:47.878Z,56.28
2022-08-30T10:58:16.310Z,55.82
2022-08-30T11:00:42.761Z,56.26
2022-08-30T11:03:09.237Z,56.13
2022-08-30T11:05:35.621Z,55.95
2022-08-30T11:08:07.002Z,53.89
2022-08-30T11:10:33.477Z,52.88
2022-08-30T11:12:59.920Z,50.53
2022-08-30T11:15:27.216Z,50.34
2022-08-30T11:17:54.197Z,50.97
2022-08-30T11:20:20.757Z,49.26
2022-08-30T11:22:47.145Z,48.50
2022-08-30T11:25:13.540Z,48.88
2022-08-30T11:27:39.911Z,48.62
2022-08-30T11:30:06.678Z,48.89
2022-08-30T11:32:33.112Z,49.73
2022-08-30T11:34:59.579Z,50.61
2022-08-30T11:37:26.044Z,50.18
2022-08-30T11:39:52.451Z,50.46
2022-08-30T11:42:19.185Z,49.11
2022-08-30T11:44:45.576Z,48.39
2022-08-30T11:47:12.275Z,47.98
2022-08-30T11:49:38.768Z,48.12
2022-08-30T11:54:53.291Z,48.85
2022-08-30T11:57:19.884Z,48.30
2022-08-30T11:59:46.246Z,48.74
2022-08-30T12:02:13.905Z,47.89
2022-08-30T12:04:40.401Z,47.03
2022-08-30T12:07:06.935Z,47.45
2022-08-30T12:09:33.321Z,48.29
2022-08-30T12:11:59.723Z,49.47
2022-08-30T12:14:26.112Z,49.65
2022-08-30T12:16:52.854Z,49.08
2022-08-30T12:19:19.267Z,49.24
2022-08-30T12:21:45.941Z,49.05
2022-08-30T12:24:12.327Z,50.11
2022-08-30T12:26:38.703Z,50.05
2022-08-30T12:29:07.617Z,49.50
2022-08-30T12:31:34.032Z,48.57
2022-08-30T12:34:00.715Z,49.22
2022-08-30T12:36:27.278Z,49.36
2022-08-30T12:38:55.696Z,49.54
2022-08-30T12:41:22.575Z,49.40
2022-08-30T12:43:48.970Z,48.58
2022-08-30T12:46:16.264Z,48.47
2022-08-30T12:48:42.711Z,49.22
2022-08-30T12:51:09.153Z,48.97
2022-08-30T12:53:35.531Z,50.02
2022-08-30T12:56:01.936Z,49.26
2022-08-30T12:58:28.400Z,47.08
2022-08-30T13:00:54.946Z,45.84
2022-08-30T13:03:24.178Z,46.73
2022-08-30T13:05:53.116Z,45.71
2022-08-30T13:08:19.746Z,45.67
2022-08-30T13:10:47.722Z,45.79
2022-08-30T13:13:14.109Z,44.29
2022-08-30T13:15:41.965Z,42.82
2022-08-30T13:18:08.359Z,41.72
2022-08-30T13:20:34.730Z,41.54
2022-08-30T13:23:01.462Z,41.55
2022-08-30T13:25:28.570Z,42.30
2022-08-30T13:27:54.959Z,41.02
2022-08-30T13:30:21.522Z,39.49
2022-08-30T13:32:47.917Z,38.41
2022-08-30T13:35:14.301Z,38.34
2022-08-30T13:37:50.575Z,39.25
2022-08-30T13:40:18.118Z,39.29
2022-08-30T13:42:44.557Z,39.07
2022-08-30T13:47:57.313Z,37.74
2022-08-30T13:50:23.713Z,36.71
2022-08-30T13:52:52.039Z,36.07
2022-08-30T13:55:18.456Z,34.76
2022-08-30T13:58:00.513Z,34.88
2022-08-30T14:00:27.018Z,33.32
2022-08-30T14:02:56.098Z,32.62
2022-08-30T14:05:48.356Z,33.27
2022-08-30T14:10:56.989Z,35.33
2022-08-30T14:13:23.495Z,35.09
2022-08-30T14:16:26.875Z,35.47
2022-08-30T14:18:36.950Z,34.68
2022-08-30T14:21:03.635Z,35.23
2022-08-30T14:23:31.990Z,34.66
2022-08-30T14:25:58.377Z,35.30
2022-08-30T14:28:24.764Z,34.94
2022-08-30T14:30:51.141Z,35.73
2022-08-30T14:33:18.129Z,34.90
2022-08-30T14:35:44.653Z,33.49
2022-08-30T14:38:11.204Z,32.62
2022-08-30T14:40:39.099Z,32.70
2022-08-30T14:43:05.563Z,34.93
2022-08-30T14:45:32.511Z,37.14
2022-08-30T14:47:58.887Z,37.92
2022-08-30T14:50:25.371Z,37.43
2022-08-30T14:52:54.392Z,37.43
2022-08-30T14:55:20.794Z,38.24
2022-08-30T14:57:47.185Z,38.41
2022-08-30T15:00:15.106Z,38.60
2022-08-30T15:02:42.684Z,37.80
2022-08-30T15:05:09.054Z,37.93
2022-08-30T15:07:35.496Z,37.96
2022-08-30T15:10:01.894Z,38.18
2022-08-30T15:12:28.294Z,38.39
2022-08-30T15:14:55.846Z,38.90
2022-08-30T15:17:22.308Z,39.77
2022-08-30T15:19:48.684Z,39.30
2022-08-30T15:22:16.328Z,40.86
2022-08-30T15:24:42.712Z,40.31
2022-08-30T15:27:15.290Z,40.51
2022-08-30T15:29:41.663Z,40.89
2022-08-30T15:32:08.758Z,41.33
2022-08-30T15:34:35.813Z,40.58
2022-08-30T15:37:02.213Z,40.88
2022-08-30T15:39:29.559Z,40.52
2022-08-30T15:42:00.715Z,41.56
2022-08-30T15:44:27.748Z,41.03
2022-08-30T15:46:54.185Z,40.94
2022-08-30T15:49:21.863Z,40.36
2022-08-30T15:51:48.263Z,40.51
2022-08-30T15:54:18.082Z,40.99
2022-08-30T15:56:44.554Z,40.72
2022-08-30T15:59:11.223Z,41.30
2022-08-30T16:01:37.749Z,41.20
2022-08-30T16:04:04.266Z,41.75
2022-08-30T16:06:33.704Z,42.59
2022-08-30T16:09:00.098Z,42.11
2022-08-30T16:11:26.532Z,42.57
2022-08-30T16:13:52.923Z,42.70
2022-08-30T16:16:19.436Z,42.32
2022-08-30T16:18:45.829Z,43.04
2022-08-30T16:21:20.407Z,43.15
2022-08-30T16:23:48.258Z,43.15
2022-08-30T16:26:17.297Z,43.49
2022-08-30T16:28:43.868Z,43.11
2022-08-30T16:31:10.314Z,43.47
2022-08-30T16:33:41.176Z,43.06
2022-08-30T16:36:10.751Z,43.66
2022-08-30T16:38:37.671Z,44.08
2022-08-30T16:41:05.913Z,45.27
2022-08-30T16:43:32.309Z,44.73
2022-08-30T16:45:58.930Z,45.62
2022-08-30T16:48:25.360Z,45.21
2022-08-30T16:50:53.799Z,44.55
2022-08-30T16:53:20.204Z,45.24
2022-08-30T16:55:46.591Z,45.51
2022-08-30T16:58:19.280Z,45.82
2022-08-30T17:00:47.455Z,44.85
2022-08-30T17:03:14.257Z,47.14
2022-08-30T17:05:40.701Z,49.94
2022-08-30T17:08:08.372Z,51.13
2022-08-30T17:10:34.738Z,50.90
2022-08-30T17:13:01.761Z,51.90
2022-08-30T17:15:28.159Z,51.24
2022-08-30T17:17:55.090Z,51.35
2022-08-30T17:20:22.068Z,51.22
2022-08-30T17:22:49.129Z,50.73
2022-08-30T17:25:15.520Z,51.17
2022-08-30T17:27:44.930Z,51.01
2022-08-30T17:30:12.064Z,50.84
2022-08-30T17:32:38.514Z,51.11
2022-08-30T17:35:06.605Z,51.05
2022-08-30T17:37:35.293Z,52.35
2022-08-30T17:40:02.209Z,54.04
2022-08-30T17:42:30.895Z,55.77
2022-08-30T17:44:59.435Z,56.20
2022-08-30T17:47:28.814Z,57.97
2022-08-30T17:49:55.207Z,58.87
2022-08-30T17:52:21.643Z,60.22
2022-08-30T17:54:48.039Z,59.63
2022-08-30T17:57:14.700Z,58.49
2022-08-30T17:59:41.434Z,57.86
2022-08-30T18:02:07.874Z,57.13
2022-08-30T18:04:37.837Z,56.09
2022-08-30T18:07:04.526Z,57.25
2022-08-30T18:09:34.026Z,58.47
2022-08-30T18:12:00.690Z,58.39
2022-08-30T18:14:27.921Z,58.75
2022-08-30T18:16:54.884Z,58.58
2022-08-30T18:19:21.394Z,58.61
2022-08-30T18:21:47.783Z,58.92
2022-08-30T18:24:14.934Z,59.22
2022-08-30T18:26:43.062Z,59.82
2022-08-30T18:29:09.659Z,60.40
2022-08-30T18:31:36.096Z,60.02
2022-08-30T18:34:02.505Z,60.48
2022-08-30T18:36:28.926Z,59.91
2022-08-30T18:38:55.400Z,60.19
2022-08-30T18:41:21.775Z,60.46
2022-08-30T18:43:48.156Z,61.02
2022-08-30T18:46:14.557Z,60.11
2022-08-30T18:48:41.388Z,60.24
2022-08-30T18:51:07.784Z,58.79
2022-08-30T18:53:36.696Z,58.65
2022-08-30T18:56:03.116Z,59.54
2022-08-30T18:58:29.490Z,61.67
2022-08-30T19:00:57.047Z,62.62
2022-08-30T19:03:23.538Z,59.43
2022-08-30T19:05:50.382Z,60.75
2022-08-30T19:08:16.915Z,60.60
2022-08-30T19:10:44.162Z,60.23
2022-08-30T19:13:10.597Z,60.69
2022-08-30T19:15:37.087Z,61.69
2022-08-30T19:18:16.751Z,62.52
2022-08-30T19:20:44.053Z,64.63
2022-08-30T19:23:10.545Z,64.56
2022-08-30T19:25:37.158Z,65.19
2022-08-30T19:28:03.542Z,63.93
2022-08-30T19:30:32.051Z,61.40
2022-08-30T19:32:58.765Z,61.52
2022-08-30T19:35:25.743Z,61.96
2022-08-30T19:37:52.132Z,61.90
2022-08-30T19:40:18.837Z,62.36
2022-08-30T19:42:46.145Z,62.02
2022-08-30T19:45:13.033Z,63.05
2022-08-30T19:47:39.427Z,63.67
2022-08-30T19:50:06.331Z,63.88
2022-08-30T19:52:32.711Z,65.36
2022-08-30T19:54:59.099Z,66.34
2022-08-30T19:57:25.484Z,65.76
2022-08-30T19:59:51.864Z,64.28
2022-08-30T20:02:18.294Z,63.44
2022-08-30T20:04:44.992Z,63.20
2022-08-30T20:07:14.279Z,63.15
2022-08-30T20:09:40.734Z,63.00
2022-08-30T20:12:07.198Z,64.60
2022-08-30T20:14:33.592Z,64.17
2022-08-30T20:17:02.430Z,63.18
2022-08-30T20:19:29.284Z,63.68
2022-08-30T20:22:04.315Z,63.13
2022-08-30T20:27:05.714Z,63.80
2022-08-30T20:29:32.101Z,63.42
2022-08-30T20:31:58.476Z,63.20
2022-08-30T20:34:24.930Z,63.15
2022-08-30T20:36:51.300Z,62.46
2022-08-30T20:39:17.728Z,62.16
2022-08-30T20:41:44.455Z,63.13
2022-08-30T20:44:11.918Z,62.30
2022-08-30T20:46:41.049Z,61.41
2022-08-30T20:49:07.574Z,61.73
2022-08-30T20:51:34.868Z,61.04
2022-08-30T20:54:02.357Z,61.32
2022-08-30T20:56:28.740Z,60.69
2022-08-30T20:58:55.316Z,59.18
2022-08-30T21:01:21.730Z,58.87
2022-08-30T21:03:48.780Z,59.54
2022-08-30T21:06:15.172Z,59.67
2022-08-30T21:08:41.582Z,58.75
2022-08-30T21:11:07.963Z,57.84
2022-08-30T21:13:34.366Z,57.18
2022-08-30T21:16:03.511Z,56.44
2022-08-30T21:18:30.311Z,57.17
2022-08-30T21:20:56.690Z,57.09
2022-08-30T21:23:23.066Z,56.71
2022-08-30T21:25:49.447Z,56.72
2022-08-30T21:28:15.825Z,56.18
2022-08-30T21:30:44.187Z,56.67
2022-08-30T21:33:10.701Z,56.87
2022-08-30T21:35:37.247Z,56.69
2022-08-30T21:38:03.813Z,57.26
2022-08-30T21:40:30.323Z,57.40
2022-08-30T21:42:56.831Z,57.30
2022-08-30T21:45:23.288Z,57.26
2022-08-30T21:47:49.771Z,57.26
2022-08-30T21:50:16.218Z,57.12
2022-08-30T21:52:42.867Z,57.44
2022-08-30T21:55:09.536Z,57.02
2022-08-30T21:57:35.999Z,56.87
2022-08-30T22:00:02.520Z,56.67
2022-08-30T22:02:29.044Z,57.15
2022-08-30T22:04:55.527Z,56.75
2022-08-30T22:07:22.086Z,56.75
2022-08-30T22:09:48.557Z,56.63
2022-08-30T22:12:15.019Z,55.98
2022-08-30T22:14:41.475Z,56.75
2022-08-30T22:17:07.958Z,56.88
2022-08-30T22:19:34.447Z,57.49
2022-08-30T22:22:02.293Z,56.58
2022-08-30T22:24:28.756Z,56.91
2022-08-30T22:26:58.794Z,57.09
2022-08-30T22:29:25.319Z,56.98
2022-08-30T22:31:51.844Z,56.41
2022-08-30T22:34:18.391Z,57.94
2022-08-30T22:36:44.773Z,58.34
2022-08-30T22:39:11.158Z,57.81
2022-08-30T22:41:37.567Z,58.60
2022-08-30T22:44:03.984Z,58.67
2022-08-30T22:46:33.678Z,58.29
2022-08-30T22:49:00.491Z,58.33
2022-08-30T22:51:26.883Z,58.61
2022-08-30T22:53:53.275Z,58.80
2022-08-30T22:56:19.885Z,58.23
2022-08-30T22:58:46.270Z,58.04
2022-08-30T23:01:12.848Z,58.19
2022-08-30T23:03:39.299Z,58.73
2022-08-30T23:06:05.704Z,58.74
2022-08-30T23:08:32.095Z,58.39
2022-08-30T23:10:58.541Z,57.70
2022-08-30T23:13:24.918Z,58.38
2022-08-30T23:15:51.341Z,58.24
2022-08-30T23:18:17.735Z,58.54
2022-08-30T23:20:44.130Z,59.11
2022-08-30T23:23:10.536Z,58.57
2022-08-30T23:25:41.368Z,58.56
2022-08-30T23:28:08.167Z,58.48
2022-08-30T23:30:34.631Z,58.13
2022-08-30T23:33:01.032Z,58.80
2022-08-30T23:35:29.410Z,58.54
2022-08-30T23:37:56.208Z,58.18
2022-08-30T23:40:22.636Z,58.55
2022-08-30T23:42:49.095Z,58.78
2022-08-30T23:45:15.499Z,58.85
2022-08-30T23:47:41.881Z,58.26
2022-08-30T23:50:08.279Z,58.89
2022-08-30T23:52:34.667Z,59.05
2022-08-30T23:55:01.054Z,58.53
2022-08-30T23:57:27.558Z,58.94
2022-08-30T23:59:53.938Z,58.44
